createdAt,value
2018-12-18T00:00:12.466Z,73.30
2018-12-18T00:02:45.089Z,73.78
2018-12-18T00:05:21.103Z,73.53
2018-12-18T00:07:49.808Z,73.51
2018-12-18T00:10:18.550Z,73.31
2018-12-18T00:12:47.247Z,73.83
2018-12-18T00:15:15.960Z,74.80
2018-12-18T00:17:44.667Z,73.92
2018-12-18T00:20:13.379Z,74.04
2018-12-18T00:22:42.092Z,73.79
2018-12-18T00:25:11.705Z,73.21
2018-12-18T00:27:40.402Z,73.46
2018-12-18T00:30:09.091Z,73.37
2018-12-18T00:32:37.814Z,73.92
2018-12-18T00:35:06.594Z,73.53
2018-12-18T00:37:35.238Z,74.13
2018-12-18T00:40:04.419Z,74.28
2018-12-18T00:42:33.119Z,73.59
2018-12-18T00:45:01.827Z,73.81
2018-12-18T00:47:30.520Z,74.25
2018-12-18T00:49:59.230Z,73.38
2018-12-18T00:52:27.912Z,74.06
2018-12-18T00:54:56.603Z,74.01
2018-12-18T00:57:25.306Z,74.05
2018-12-18T00:59:53.938Z,74.21
2018-12-18T01:02:22.670Z,74.39
2018-12-18T01:04:51.518Z,74.48
2018-12-18T01:07:20.270Z,74.45
2018-12-18T01:09:48.970Z,73.62
2018-12-18T01:12:17.751Z,73.75
2018-12-18T01:14:46.449Z,73.42
2018-12-18T01:17:15.198Z,73.28
2018-12-18T01:19:43.889Z,73.51
2018-12-18T01:22:12.598Z,72.80
2018-12-18T01:24:41.299Z,73.04
2018-12-18T01:27:10.002Z,72.08
2018-12-18T01:29:38.710Z,71.76
2018-12-18T01:32:07.339Z,71.92
2018-12-18T01:34:35.987Z,72.05
2018-12-18T01:37:04.692Z,71.97
2018-12-18T01:39:33.375Z,72.40
2018-12-18T01:42:02.020Z,72.78
2018-12-18T01:44:31.638Z,72.98
2018-12-18T01:47:00.352Z,72.84
2018-12-18T01:49:29.010Z,72.73
2018-12-18T01:51:57.729Z,73.15
2018-12-18T01:54:26.460Z,73.04
2018-12-18T01:56:55.151Z,73.20
2018-12-18T01:59:23.857Z,72.79
2018-12-18T02:01:52.574Z,73.34
2018-12-18T02:04:21.235Z,73.11
2018-12-18T02:06:49.923Z,73.04
2018-12-18T02:09:18.681Z,73.42
2018-12-18T02:11:47.388Z,72.99
2018-12-18T02:14:16.051Z,72.62
2018-12-18T02:16:44.755Z,72.25
2018-12-18T02:19:13.464Z,72.13
2018-12-18T02:21:42.154Z,72.03
2018-12-18T02:24:10.808Z,72.65
2018-12-18T02:26:39.550Z,71.67
2018-12-18T02:29:08.214Z,71.69
2018-12-18T02:31:36.851Z,72.19
2018-12-18T02:34:05.602Z,72.24
2018-12-18T02:36:34.297Z,72.08
2018-12-18T02:39:03.166Z,72.09
2018-12-18T02:41:32.896Z,71.68
2018-12-18T02:44:01.599Z,72.17
2018-12-18T02:46:30.299Z,71.61
2018-12-18T02:48:59.018Z,71.79
2018-12-18T02:51:27.678Z,71.84
2018-12-18T02:53:56.466Z,70.91
2018-12-18T02:56:25.159Z,71.05
2018-12-18T02:58:53.871Z,70.90
2018-12-18T03:01:22.579Z,70.88
2018-12-18T03:03:51.273Z,71.29
2018-12-18T03:06:19.966Z,71.87
2018-12-18T03:08:48.672Z,71.49
2018-12-18T03:11:20.459Z,71.69
2018-12-18T03:13:49.423Z,71.67
2018-12-18T03:16:18.098Z,71.32
2018-12-18T03:18:47.839Z,71.25
2018-12-18T03:21:17.047Z,71.51
2018-12-18T03:23:45.808Z,71.05
2018-12-18T03:26:14.570Z,71.04
2018-12-18T03:28:43.227Z,71.83
2018-12-18T03:31:11.990Z,71.49
2018-12-18T03:33:40.733Z,71.47
2018-12-18T03:36:09.499Z,71.15
2018-12-18T03:38:38.198Z,71.82
2018-12-18T03:41:06.898Z,71.64
2018-12-18T03:43:35.601Z,71.37
2018-12-18T03:46:04.347Z,71.31
2018-12-18T03:48:33.022Z,71.06
2018-12-18T03:51:01.723Z,71.13
2018-12-18T03:53:30.406Z,71.99
2018-12-18T03:55:59.151Z,71.74
2018-12-18T03:58:27.857Z,71.66
2018-12-18T04:00:56.591Z,72.25
2018-12-18T04:03:25.239Z,72.01
2018-12-18T04:05:54.007Z,71.90
2018-12-18T04:08:22.641Z,72.37
2018-12-18T04:10:51.402Z,72.04
2018-12-18T04:13:20.103Z,72.03
2018-12-18T04:15:48.803Z,71.23
2018-12-18T04:18:17.500Z,72.32
2018-12-18T04:20:46.259Z,72.07
2018-12-18T04:23:15.059Z,72.19
2018-12-18T04:25:43.760Z,72.00
2018-12-18T04:28:12.489Z,71.76
2018-12-18T04:30:41.111Z,71.71
2018-12-18T04:33:09.809Z,71.49
2018-12-18T04:35:40.480Z,71.68
2018-12-18T04:38:09.219Z,71.41
2018-12-18T04:40:37.937Z,71.65
2018-12-18T04:43:06.645Z,71.92
2018-12-18T04:45:35.561Z,71.66
2018-12-18T04:48:04.278Z,71.99
2018-12-18T04:50:33.019Z,71.49
2018-12-18T04:53:01.714Z,72.36
2018-12-18T04:55:30.458Z,71.60
2018-12-18T04:57:59.195Z,71.50
2018-12-18T05:00:27.894Z,71.32
2018-12-18T05:02:56.615Z,71.29
2018-12-18T05:05:25.342Z,71.37
2018-12-18T05:07:54.059Z,71.41
2018-12-18T05:10:22.813Z,70.84
2018-12-18T05:12:51.546Z,71.02
2018-12-18T05:15:20.266Z,71.40
2018-12-18T05:17:48.966Z,71.19
2018-12-18T05:20:17.995Z,71.70
2018-12-18T05:22:46.780Z,71.55
2018-12-18T05:25:15.479Z,71.55
2018-12-18T05:27:44.214Z,71.11
2018-12-18T05:30:12.946Z,71.89
2018-12-18T05:32:41.611Z,72.32
2018-12-18T05:35:10.339Z,72.02
2018-12-18T05:37:39.086Z,72.64
2018-12-18T05:40:07.879Z,72.46
2018-12-18T05:42:37.410Z,72.71
2018-12-18T05:45:06.155Z,72.68
2018-12-18T05:47:34.870Z,72.53
2018-12-18T05:50:03.611Z,71.81
2018-12-18T05:52:33.279Z,71.93
2018-12-18T05:55:01.998Z,71.90
2018-12-18T05:57:30.782Z,71.71
2018-12-18T05:59:59.511Z,71.09
2018-12-18T06:02:28.270Z,71.13
2018-12-18T06:05:03.177Z,71.03
2018-12-18T06:07:29.438Z,71.65
2018-12-18T06:09:58.182Z,71.97
2018-12-18T06:12:26.910Z,71.62
2018-12-18T06:14:55.680Z,71.54
2018-12-18T06:17:24.422Z,71.83
2018-12-18T06:19:53.064Z,71.68
2018-12-18T06:22:21.784Z,71.36
2018-12-18T06:24:50.505Z,71.24
2018-12-18T06:27:19.263Z,71.93
2018-12-18T06:29:48.892Z,71.14
2018-12-18T06:32:17.629Z,71.43
2018-12-18T06:34:46.363Z,71.38
2018-12-18T06:37:15.082Z,71.49
2018-12-18T06:39:43.890Z,70.78
2018-12-18T06:42:12.643Z,70.85
2018-12-18T06:47:21.938Z,71.36
2018-12-18T06:49:50.709Z,71.64
2018-12-18T06:52:19.453Z,71.67
2018-12-18T06:54:48.198Z,71.42
2018-12-18T06:57:16.860Z,70.66
2018-12-18T06:59:45.609Z,70.67
2018-12-18T07:02:14.341Z,71.15
2018-12-18T07:04:43.132Z,71.80
2018-12-18T07:07:12.934Z,72.01
2018-12-18T07:09:41.709Z,71.42
2018-12-18T07:12:10.470Z,71.72
2018-12-18T07:14:39.191Z,71.30
2018-12-18T07:17:07.984Z,70.78
2018-12-18T07:19:36.667Z,71.24
2018-12-18T07:22:05.405Z,70.57
2018-12-18T07:24:34.074Z,71.18
2018-12-18T07:27:02.831Z,70.07
2018-12-18T07:29:31.594Z,69.93
2018-12-18T07:32:00.386Z,69.74
2018-12-18T07:34:33.400Z,70.19
2018-12-18T07:36:59.993Z,69.94
2018-12-18T07:39:28.736Z,69.29
2018-12-18T07:41:57.503Z,69.60
2018-12-18T07:44:26.294Z,69.42
2018-12-18T07:46:55.026Z,69.46
2018-12-18T07:49:23.759Z,69.87
2018-12-18T07:51:52.506Z,69.41
2018-12-18T07:54:21.798Z,69.84
2018-12-18T07:56:50.474Z,69.99
2018-12-18T07:59:19.290Z,69.66
2018-12-18T08:01:48.055Z,70.00
2018-12-18T08:04:16.799Z,69.69
2018-12-18T08:06:45.524Z,69.88
2018-12-18T08:09:14.396Z,70.41
2018-12-18T08:11:43.183Z,70.13
2018-12-18T08:14:11.868Z,70.08
2018-12-18T08:16:40.673Z,70.08
2018-12-18T08:19:09.518Z,69.91
2018-12-18T08:21:38.358Z,70.50
2018-12-18T08:24:07.182Z,70.32
2018-12-18T08:26:35.944Z,70.40
2018-12-18T08:29:04.778Z,70.22
2018-12-18T08:31:33.520Z,70.88
2018-12-18T08:34:02.390Z,70.29
2018-12-18T08:36:31.154Z,70.46
2018-12-18T08:39:00.097Z,70.39
2018-12-18T08:41:28.868Z,70.39
2018-12-18T08:43:57.655Z,69.71
2018-12-18T08:46:26.519Z,69.92
2018-12-18T08:48:55.351Z,69.86
2018-12-18T08:51:24.158Z,69.79
2018-12-18T08:53:52.842Z,70.00
2018-12-18T08:56:21.606Z,69.54
2018-12-18T08:58:50.395Z,68.99
2018-12-18T09:01:19.227Z,68.80
2018-12-18T09:03:48.008Z,68.98
2018-12-18T09:06:16.754Z,69.08
2018-12-18T09:08:45.532Z,69.09
2018-12-18T09:11:14.495Z,68.96
2018-12-18T09:13:43.228Z,68.97
2018-12-18T09:16:17.520Z,68.55
2018-12-18T09:18:46.251Z,68.55
2018-12-18T09:21:14.977Z,68.01
2018-12-18T09:23:43.726Z,68.11
2018-12-18T09:26:12.463Z,67.75
2018-12-18T09:28:41.216Z,67.28
2018-12-18T09:31:09.886Z,67.37
2018-12-18T09:33:38.655Z,66.79
2018-12-18T09:36:07.459Z,67.09
2018-12-18T09:38:41.728Z,66.47
2018-12-18T09:41:25.275Z,67.05
2018-12-18T09:43:58.853Z,66.85
2018-12-18T09:46:27.699Z,66.85
2018-12-18T09:48:56.379Z,67.68
2018-12-18T09:51:25.138Z,67.18
2018-12-18T09:53:53.838Z,66.96
2018-12-18T09:56:22.586Z,66.56
2018-12-18T09:58:51.306Z,66.59
2018-12-18T10:01:19.991Z,67.12
2018-12-18T10:03:48.732Z,66.52
2018-12-18T10:06:17.536Z,66.15
2018-12-18T10:08:46.319Z,65.90
2018-12-18T10:11:14.995Z,65.78
2018-12-18T10:13:43.741Z,65.05
2018-12-18T10:16:12.470Z,65.12
2018-12-18T10:18:41.214Z,65.01
2018-12-18T10:21:10.088Z,64.18
2018-12-18T10:23:38.823Z,65.86
2018-12-18T10:26:07.620Z,65.26
2018-12-18T10:28:36.453Z,64.69
2018-12-18T10:31:05.231Z,64.98
2018-12-18T10:33:33.990Z,64.58
2018-12-18T10:36:04.333Z,65.42
2018-12-18T10:38:33.018Z,64.67
2018-12-18T10:41:01.750Z,64.57
2018-12-18T10:43:30.473Z,63.94
2018-12-18T10:45:59.248Z,63.97
2018-12-18T10:48:27.951Z,64.84
2018-12-18T10:50:56.696Z,64.64
2018-12-18T10:53:25.515Z,64.87
2018-12-18T10:55:54.326Z,64.62
2018-12-18T10:58:24.114Z,65.16
2018-12-18T11:00:58.534Z,64.83
2018-12-18T11:03:27.216Z,63.88
2018-12-18T11:05:56.000Z,64.37
2018-12-18T11:08:24.690Z,64.01
2018-12-18T11:10:53.463Z,63.46
2018-12-18T11:13:22.183Z,63.37
2018-12-18T11:15:50.932Z,63.26
2018-12-18T11:18:19.620Z,63.59
2018-12-18T11:20:48.419Z,63.15
2018-12-18T11:23:17.170Z,62.12
2018-12-18T11:25:45.910Z,62.71
2018-12-18T11:28:14.651Z,62.85
2018-12-18T11:30:43.393Z,62.88
2018-12-18T11:33:12.187Z,63.39
2018-12-18T11:35:41.003Z,63.68
2018-12-18T11:38:09.683Z,62.91
2018-12-18T11:40:38.428Z,63.69
2018-12-18T11:43:07.163Z,63.81
2018-12-18T11:45:35.900Z,64.41
2018-12-18T11:48:04.714Z,63.80
2018-12-18T11:50:33.443Z,62.90
2018-12-18T11:53:02.186Z,63.87
2018-12-18T11:55:31.034Z,63.05
2018-12-18T11:57:59.776Z,62.61
2018-12-18T12:00:28.447Z,62.97
2018-12-18T12:02:57.164Z,63.09
2018-12-18T12:05:27.848Z,63.14
2018-12-18T12:07:56.587Z,63.40
2018-12-18T12:10:25.275Z,63.49
2018-12-18T12:12:53.954Z,63.43
2018-12-18T12:15:22.675Z,63.76
2018-12-18T12:17:51.591Z,64.05
2018-12-18T12:20:20.266Z,63.77
2018-12-18T12:22:49.019Z,63.69
2018-12-18T12:25:17.733Z,63.18
2018-12-18T12:27:52.006Z,63.31
2018-12-18T12:30:20.686Z,63.67
2018-12-18T12:32:49.418Z,64.19
2018-12-18T12:35:18.175Z,63.82
2018-12-18T12:37:46.859Z,63.55
2018-12-18T12:40:15.534Z,63.97
2018-12-18T12:42:44.234Z,62.74
2018-12-18T12:45:12.984Z,63.16
2018-12-18T12:47:43.675Z,62.59
2018-12-18T12:50:12.402Z,62.59
2018-12-18T12:52:41.167Z,62.38
2018-12-18T12:55:11.027Z,62.60
2018-12-18T12:57:39.716Z,63.26
2018-12-18T13:00:08.539Z,62.19
2018-12-18T13:02:37.359Z,62.90
2018-12-18T13:05:06.211Z,62.78
2018-12-18T13:07:35.000Z,63.12
2018-12-18T13:10:04.083Z,63.09
2018-12-18T13:12:32.875Z,62.97
2018-12-18T13:15:01.603Z,63.11
2018-12-18T13:17:30.327Z,62.45
2018-12-18T13:19:59.070Z,62.69
2018-12-18T13:22:27.850Z,68.74
2018-12-18T13:24:56.562Z,62.93
2018-12-18T13:27:25.315Z,59.11
2018-12-18T13:29:54.283Z,59.73
2018-12-18T13:32:23.034Z,60.21
2018-12-18T13:34:52.039Z,60.06
2018-12-18T13:37:20.763Z,61.46
2018-12-18T13:39:49.571Z,61.76
2018-12-18T13:42:18.296Z,61.54
2018-12-18T13:44:47.005Z,61.88
2018-12-18T13:47:15.779Z,62.26
2018-12-18T13:49:44.567Z,62.09
2018-12-18T13:52:13.283Z,63.12
2018-12-18T13:54:42.027Z,63.23
2018-12-18T13:57:10.790Z,63.23
2018-12-18T13:59:39.519Z,63.42
2018-12-18T14:02:08.292Z,63.70
2018-12-18T14:04:36.990Z,63.72
2018-12-18T14:07:05.929Z,64.79
2018-12-18T14:09:34.938Z,63.86
2018-12-18T14:12:03.659Z,65.07
2018-12-18T14:14:32.397Z,63.95
2018-12-18T14:17:02.211Z,64.44
2018-12-18T14:19:30.926Z,64.45
2018-12-18T14:21:59.655Z,64.39
2018-12-18T14:24:28.455Z,64.11
2018-12-18T14:26:57.216Z,64.16
2018-12-18T14:29:25.995Z,63.14
2018-12-18T14:31:54.676Z,64.19
2018-12-18T14:34:23.415Z,63.66
2018-12-18T14:36:56.254Z,64.12
2018-12-18T14:39:22.827Z,64.11
2018-12-18T14:41:51.534Z,64.82
2018-12-18T14:44:20.203Z,64.48
2018-12-18T14:46:48.878Z,64.92
2018-12-18T14:49:17.546Z,64.68
2018-12-18T14:51:46.215Z,63.71
2018-12-18T14:54:16.076Z,64.20
2018-12-18T14:56:44.820Z,63.99
2018-12-18T14:59:13.558Z,64.32
2018-12-18T15:01:42.294Z,64.37
2018-12-18T15:04:10.986Z,64.06
2018-12-18T15:06:39.707Z,63.45
2018-12-18T15:09:08.438Z,63.08
2018-12-18T15:11:37.138Z,63.12
2018-12-18T15:14:05.859Z,62.56
2018-12-18T15:16:35.008Z,62.68
2018-12-18T15:19:03.758Z,62.26
2018-12-18T15:21:32.489Z,62.54
2018-12-18T15:24:01.195Z,62.91
2018-12-18T15:26:29.906Z,63.22
2018-12-18T15:28:58.655Z,63.83
2018-12-18T15:31:27.378Z,63.97
2018-12-18T15:33:56.122Z,64.06
2018-12-18T15:36:24.846Z,64.28
2018-12-18T15:38:54.251Z,64.82
2018-12-18T15:41:22.989Z,64.74
2018-12-18T15:43:52.790Z,64.33
2018-12-18T15:46:21.478Z,64.36
2018-12-18T15:48:50.141Z,64.61
2018-12-18T15:51:18.898Z,64.29
2018-12-18T15:53:47.574Z,64.11
2018-12-18T15:56:16.370Z,64.74
2018-12-18T15:58:45.054Z,64.33
2018-12-18T16:01:13.864Z,64.59
2018-12-18T16:03:42.566Z,64.49
2018-12-18T16:06:12.430Z,64.20
2018-12-18T16:08:41.111Z,64.08
2018-12-18T16:11:09.841Z,64.39
2018-12-18T16:13:38.522Z,63.56
2018-12-18T16:16:07.421Z,63.61
2018-12-18T16:18:36.206Z,63.51
2018-12-18T16:21:04.926Z,63.56
2018-12-18T16:23:33.689Z,63.59
2018-12-18T16:26:02.354Z,63.27
2018-12-18T16:28:31.070Z,63.50
2018-12-18T16:30:59.828Z,63.66
2018-12-18T16:33:28.539Z,64.12
2018-12-18T16:35:57.238Z,64.08
2018-12-18T16:38:25.975Z,64.32
2018-12-18T16:40:54.707Z,64.83
2018-12-18T16:43:23.439Z,64.90
2018-12-18T16:45:52.623Z,64.12
2018-12-18T16:48:21.376Z,64.61
2018-12-18T16:50:50.095Z,64.23
2018-12-18T16:53:18.759Z,63.85
2018-12-18T16:55:47.462Z,63.46
2018-12-18T16:58:16.256Z,63.13
2018-12-18T17:00:44.934Z,63.57
2018-12-18T17:03:13.606Z,63.35
2018-12-18T17:05:42.262Z,63.50
2018-12-18T17:08:11.895Z,63.14
2018-12-18T17:10:40.618Z,62.95
2018-12-18T17:13:10.355Z,62.94
2018-12-18T17:15:39.022Z,62.76
2018-12-18T17:18:07.750Z,63.10
2018-12-18T17:20:36.478Z,63.00
2018-12-18T17:23:05.263Z,62.51
2018-12-18T17:25:33.936Z,61.88
2018-12-18T17:28:02.615Z,62.43
2018-12-18T17:30:31.281Z,62.39
2018-12-18T17:32:59.990Z,62.65
2018-12-18T17:35:28.744Z,61.62
2018-12-18T17:37:57.490Z,62.08
2018-12-18T17:40:26.227Z,62.18
2018-12-18T17:42:54.957Z,62.23
2018-12-18T17:45:23.678Z,61.74
2018-12-18T17:47:53.422Z,64.19
2018-12-18T17:50:22.151Z,61.69
2018-12-18T17:52:50.943Z,61.12
2018-12-18T17:55:19.711Z,61.52
2018-12-18T17:57:48.487Z,61.40
2018-12-18T18:00:17.163Z,62.17
2018-12-18T18:02:45.874Z,62.11
2018-12-18T18:05:14.615Z,62.52
2018-12-18T18:07:43.414Z,62.57
2018-12-18T18:10:12.188Z,62.61
2018-12-18T18:12:40.914Z,63.17
2018-12-18T18:15:11.048Z,63.01
2018-12-18T18:17:39.743Z,63.29
2018-12-18T18:20:08.542Z,62.43
2018-12-18T18:22:37.620Z,63.58
2018-12-18T18:25:06.418Z,63.61
2018-12-18T18:27:35.223Z,63.38
2018-12-18T18:30:05.623Z,63.77
2018-12-18T18:32:35.344Z,63.95
2018-12-18T18:35:04.610Z,63.53
2018-12-18T18:37:33.390Z,63.13
2018-12-18T18:40:02.207Z,63.40
2018-12-18T18:42:30.891Z,63.88
2018-12-18T18:44:59.583Z,64.34
2018-12-18T18:47:28.426Z,64.21
2018-12-18T18:49:57.207Z,64.21
2018-12-18T18:52:25.958Z,64.53
2018-12-18T18:54:54.695Z,64.41
2018-12-18T18:57:23.427Z,64.80
2018-12-18T18:59:52.167Z,64.26
2018-12-18T19:02:21.353Z,64.85
2018-12-18T19:04:50.072Z,64.95
2018-12-18T19:07:18.804Z,65.24
2018-12-18T19:09:47.543Z,65.18
2018-12-18T19:12:16.355Z,64.95
2018-12-18T19:14:45.110Z,65.28
2018-12-18T19:17:13.822Z,64.79
2018-12-18T19:19:42.600Z,64.89
2018-12-18T19:22:11.412Z,65.56
2018-12-18T19:24:40.911Z,65.69
2018-12-18T19:27:09.582Z,65.20
2018-12-18T19:29:38.387Z,64.68
2018-12-18T19:32:07.154Z,65.40
2018-12-18T19:34:35.843Z,64.67
2018-12-18T19:37:04.742Z,64.89
2018-12-18T19:39:33.585Z,65.04
2018-12-18T19:42:02.255Z,65.95
2018-12-18T19:44:30.946Z,64.58
2018-12-18T19:47:00.528Z,65.23
2018-12-18T19:49:29.230Z,65.06
2018-12-18T19:51:58.011Z,64.42
2018-12-18T19:54:26.696Z,64.06
2018-12-18T19:56:56.487Z,64.45
2018-12-18T19:59:25.231Z,64.44
2018-12-18T20:01:54.078Z,64.18
2018-12-18T20:04:22.834Z,63.67
2018-12-18T20:06:51.554Z,63.81
2018-12-18T20:09:20.317Z,64.23
2018-12-18T20:11:49.046Z,63.38
2018-12-18T20:14:17.814Z,62.96
2018-12-18T20:16:46.607Z,63.09
2018-12-18T20:19:15.432Z,62.61
2018-12-18T20:21:44.119Z,62.49
2018-12-18T20:24:12.835Z,62.95
2018-12-18T20:26:41.527Z,62.74
2018-12-18T20:29:10.344Z,62.09
2018-12-18T20:31:39.286Z,62.72
2018-12-18T20:34:08.036Z,62.35
2018-12-18T20:36:37.071Z,62.12
2018-12-18T20:39:07.986Z,62.50
2018-12-18T20:41:36.804Z,62.01
2018-12-18T20:44:05.538Z,61.96
2018-12-18T20:46:34.203Z,61.52
2018-12-18T20:49:02.937Z,61.60
2018-12-18T20:51:31.702Z,61.54
2018-12-18T20:54:00.458Z,61.41
2018-12-18T20:56:29.231Z,60.85
2018-12-18T20:58:57.907Z,60.75
2018-12-18T21:01:26.766Z,61.03
2018-12-18T21:03:55.531Z,60.84
2018-12-18T21:06:24.367Z,61.37
2018-12-18T21:08:53.186Z,60.71
2018-12-18T21:11:22.048Z,60.33
2018-12-18T21:13:50.883Z,60.00
2018-12-18T21:16:19.702Z,60.55
2018-12-18T21:18:48.543Z,61.08
2018-12-18T21:21:17.502Z,60.88
2018-12-18T21:23:46.343Z,61.28
2018-12-18T21:26:15.203Z,60.20
2018-12-18T21:28:44.023Z,60.45
2018-12-18T21:31:12.939Z,60.29
2018-12-18T21:33:41.844Z,59.89
2018-12-18T21:36:10.862Z,60.09
2018-12-18T21:38:39.902Z,60.68
2018-12-18T21:41:08.807Z,59.88
2018-12-18T21:43:37.666Z,60.01
2018-12-18T21:46:06.488Z,59.94
2018-12-18T21:48:35.610Z,60.42
2018-12-18T21:51:04.622Z,60.21
2018-12-18T21:53:33.450Z,60.37
2018-12-18T21:56:02.316Z,59.94
2018-12-18T21:58:31.248Z,59.79
2018-12-18T22:01:01.175Z,59.92
2018-12-18T22:03:31.055Z,59.50
2018-12-18T22:05:59.890Z,59.86
2018-12-18T22:08:28.737Z,58.73
2018-12-18T22:10:57.700Z,59.16
2018-12-18T22:13:26.558Z,59.44
2018-12-18T22:15:55.377Z,59.45
2018-12-18T22:18:24.190Z,59.63
2018-12-18T22:20:53.095Z,59.83
2018-12-18T22:23:21.943Z,59.98
2018-12-18T22:25:50.687Z,60.62
2018-12-18T22:28:19.350Z,60.48
2018-12-18T22:30:48.062Z,60.40
2018-12-18T22:33:16.742Z,60.09
2018-12-18T22:35:45.403Z,60.68
2018-12-18T22:38:14.074Z,60.38
2018-12-18T22:40:42.788Z,60.53
2018-12-18T22:43:11.502Z,60.43
2018-12-18T22:45:40.293Z,60.32
2018-12-18T22:48:09.010Z,59.67
2018-12-18T22:50:37.686Z,60.43
2018-12-18T22:53:06.402Z,60.00
2018-12-18T22:55:35.229Z,60.77
2018-12-18T22:58:03.987Z,60.00
2018-12-18T23:00:39.055Z,59.99
2018-12-18T23:03:09.720Z,60.01
2018-12-18T23:05:38.442Z,60.29
2018-12-18T23:08:07.163Z,59.81
2018-12-18T23:10:35.823Z,59.68
2018-12-18T23:13:04.544Z,59.04
2018-12-18T23:15:33.315Z,59.39
2018-12-18T23:18:01.971Z,58.91
2018-12-18T23:20:30.666Z,58.97
2018-12-18T23:22:59.403Z,59.38
2018-12-18T23:25:28.199Z,58.78
2018-12-18T23:27:56.939Z,59.33
2018-12-18T23:30:26.707Z,59.37
2018-12-18T23:32:56.519Z,58.49
2018-12-18T23:35:25.276Z,58.85
2018-12-18T23:37:54.090Z,58.85
2018-12-18T23:40:22.885Z,58.81
2018-12-18T23:42:51.590Z,58.79
2018-12-18T23:45:20.550Z,58.53
2018-12-18T23:47:49.194Z,58.84
2018-12-18T23:50:17.858Z,59.11
2018-12-18T23:52:47.487Z,59.54
2018-12-18T23:55:16.198Z,59.94
2018-12-18T23:57:44.919Z,59.96
